sensor_id;sensor_type;location;lat;lon;timestamp;P1;durP1;ratioP1;P2;durP2;ratioP2
15526;SDS011;7865;50.918;4.510;2024-01-30T00:01:56;6.07;;;4.67;;
15526;SDS011;7865;50.918;4.510;2024-01-30T00:06:58;8.40;;;5.00;;
15526;SDS011;7865;50.918;4.510;2024-01-30T00:12:00;5.80;;;5.17;;
15526;SDS011;7865;50.918;4.510;2024-01-30T00:17:02;6.50;;;4.57;;
15526;SDS011;7865;50.918;4.510;2024-01-30T00:22:04;6.10;;;4.53;;
15526;SDS011;7865;50.918;4.510;2024-01-30T00:27:07;5.93;;;4.70;;
15526;SDS011;7865;50.918;4.510;2024-01-30T00:32:09;5.80;;;4.60;;
15526;SDS011;7865;50.918;4.510;2024-01-30T00:37:11;7.67;;;4.53;;
15526;SDS011;7865;50.918;4.510;2024-01-30T00:42:13;7.10;;;4.70;;
15526;SDS011;7865;50.918;4.510;2024-01-30T00:47:15;6.77;;;4.60;;
15526;SDS011;7865;50.918;4.510;2024-01-30T00:52:17;7.73;;;4.27;;
15526;SDS011;7865;50.918;4.510;2024-01-30T00:57:19;6.37;;;4.47;;
15526;SDS011;7865;50.918;4.510;2024-01-30T01:02:21;8.67;;;4.60;;
15526;SDS011;7865;50.918;4.510;2024-01-30T01:07:23;7.10;;;4.23;;
15526;SDS011;7865;50.918;4.510;2024-01-30T01:12:25;6.93;;;5.00;;
15526;SDS011;7865;50.918;4.510;2024-01-30T01:17:26;6.57;;;4.80;;
15526;SDS011;7865;50.918;4.510;2024-01-30T01:22:29;5.93;;;4.60;;
15526;SDS011;7865;50.918;4.510;2024-01-30T01:27:31;6.13;;;4.50;;
15526;SDS011;7865;50.918;4.510;2024-01-30T01:32:34;7.03;;;4.00;;
15526;SDS011;7865;50.918;4.510;2024-01-30T01:37:36;6.03;;;4.67;;
15526;SDS011;7865;50.918;4.510;2024-01-30T01:42:38;6.13;;;4.23;;
15526;SDS011;7865;50.918;4.510;2024-01-30T01:47:40;6.80;;;4.43;;
15526;SDS011;7865;50.918;4.510;2024-01-30T01:52:42;4.77;;;4.10;;
15526;SDS011;7865;50.918;4.510;2024-01-30T01:57:44;6.67;;;4.40;;
15526;SDS011;7865;50.918;4.510;2024-01-30T02:02:46;4.77;;;4.27;;
15526;SDS011;7865;50.918;4.510;2024-01-30T02:07:48;6.57;;;4.77;;
15526;SDS011;7865;50.918;4.510;2024-01-30T02:12:52;6.03;;;4.87;;
15526;SDS011;7865;50.918;4.510;2024-01-30T02:17:53;9.27;;;3.77;;
15526;SDS011;7865;50.918;4.510;2024-01-30T02:22:56;6.97;;;4.30;;
15526;SDS011;7865;50.918;4.510;2024-01-30T02:28:01;7.83;;;4.30;;
15526;SDS011;7865;50.918;4.510;2024-01-30T02:33:03;5.57;;;4.70;;
15526;SDS011;7865;50.918;4.510;2024-01-30T02:38:05;6.93;;;4.70;;
15526;SDS011;7865;50.918;4.510;2024-01-30T02:43:07;5.60;;;4.70;;
15526;SDS011;7865;50.918;4.510;2024-01-30T02:48:08;8.10;;;5.03;;
15526;SDS011;7865;50.918;4.510;2024-01-30T02:53:10;7.53;;;4.20;;
15526;SDS011;7865;50.918;4.510;2024-01-30T02:58:12;6.97;;;4.73;;
15526;SDS011;7865;50.918;4.510;2024-01-30T03:03:14;5.50;;;4.50;;
15526;SDS011;7865;50.918;4.510;2024-01-30T03:08:16;7.43;;;3.93;;
15526;SDS011;7865;50.918;4.510;2024-01-30T03:13:18;8.67;;;4.17;;
15526;SDS011;7865;50.918;4.510;2024-01-30T03:18:20;5.87;;;4.47;;
15526;SDS011;7865;50.918;4.510;2024-01-30T03:23:22;7.20;;;4.37;;
15526;SDS011;7865;50.918;4.510;2024-01-30T03:28:23;6.17;;;4.37;;
15526;SDS011;7865;50.918;4.510;2024-01-30T03:33:25;5.57;;;4.30;;
15526;SDS011;7865;50.918;4.510;2024-01-30T03:38:28;4.43;;;4.03;;
15526;SDS011;7865;50.918;4.510;2024-01-30T03:43:30;6.77;;;4.23;;
15526;SDS011;7865;50.918;4.510;2024-01-30T03:48:32;7.53;;;4.40;;
15526;SDS011;7865;50.918;4.510;2024-01-30T03:53:34;10.80;;;4.83;;
15526;SDS011;7865;50.918;4.510;2024-01-30T03:58:36;5.57;;;4.60;;
15526;SDS011;7865;50.918;4.510;2024-01-30T04:03:38;8.57;;;4.77;;
15526;SDS011;7865;50.918;4.510;2024-01-30T04:08:40;7.57;;;5.03;;
15526;SDS011;7865;50.918;4.510;2024-01-30T04:13:42;7.00;;;4.73;;
15526;SDS011;7865;50.918;4.510;2024-01-30T04:18:44;6.87;;;4.73;;
15526;SDS011;7865;50.918;4.510;2024-01-30T04:23:46;6.50;;;4.33;;
15526;SDS011;7865;50.918;4.510;2024-01-30T04:28:49;5.20;;;4.47;;
15526;SDS011;7865;50.918;4.510;2024-01-30T04:33:51;7.70;;;4.50;;
15526;SDS011;7865;50.918;4.510;2024-01-30T04:38:53;6.83;;;4.33;;
15526;SDS011;7865;50.918;4.510;2024-01-30T04:43:55;8.53;;;4.93;;
15526;SDS011;7865;50.918;4.510;2024-01-30T04:48:57;7.87;;;4.40;;
15526;SDS011;7865;50.918;4.510;2024-01-30T04:53:59;5.70;;;4.80;;
15526;SDS011;7865;50.918;4.510;2024-01-30T04:59:02;6.80;;;4.63;;
15526;SDS011;7865;50.918;4.510;2024-01-30T05:04:04;5.17;;;4.30;;
15526;SDS011;7865;50.918;4.510;2024-01-30T05:09:10;6.87;;;4.57;;
15526;SDS011;7865;50.918;4.510;2024-01-30T05:14:13;7.30;;;4.83;;
15526;SDS011;7865;50.918;4.510;2024-01-30T05:19:16;5.90;;;4.63;;
15526;SDS011;7865;50.918;4.510;2024-01-30T05:24:19;5.67;;;4.83;;
15526;SDS011;7865;50.918;4.510;2024-01-30T05:29:22;5.87;;;4.67;;
15526;SDS011;7865;50.918;4.510;2024-01-30T05:34:23;6.27;;;4.57;;
15526;SDS011;7865;50.918;4.510;2024-01-30T05:39:25;7.23;;;4.50;;
15526;SDS011;7865;50.918;4.510;2024-01-30T05:44:27;9.03;;;5.17;;
15526;SDS011;7865;50.918;4.510;2024-01-30T05:49:29;7.23;;;5.03;;
15526;SDS011;7865;50.918;4.510;2024-01-30T05:54:31;7.60;;;4.93;;
15526;SDS011;7865;50.918;4.510;2024-01-30T05:59:33;10.23;;;4.93;;
15526;SDS011;7865;50.918;4.510;2024-01-30T06:04:41;7.93;;;4.83;;
15526;SDS011;7865;50.918;4.510;2024-01-30T06:09:43;7.03;;;5.57;;
15526;SDS011;7865;50.918;4.510;2024-01-30T06:14:45;18.93;;;12.27;;
15526;SDS011;7865;50.918;4.510;2024-01-30T06:19:48;13.07;;;8.63;;
15526;SDS011;7865;50.918;4.510;2024-01-30T06:24:50;8.40;;;5.30;;
15526;SDS011;7865;50.918;4.510;2024-01-30T06:29:52;8.50;;;5.03;;
15526;SDS011;7865;50.918;4.510;2024-01-30T06:34:54;8.03;;;5.13;;
15526;SDS011;7865;50.918;4.510;2024-01-30T06:39:56;5.73;;;5.03;;
15526;SDS011;7865;50.918;4.510;2024-01-30T06:44:58;11.07;;;6.83;;
15526;SDS011;7865;50.918;4.510;2024-01-30T06:49:59;9.40;;;6.43;;
15526;SDS011;7865;50.918;4.510;2024-01-30T06:55:04;8.10;;;5.57;;
15526;SDS011;7865;50.918;4.510;2024-01-30T07:00:06;8.23;;;4.87;;
15526;SDS011;7865;50.918;4.510;2024-01-30T07:05:09;10.53;;;5.37;;
15526;SDS011;7865;50.918;4.510;2024-01-30T07:10:11;8.93;;;6.30;;
15526;SDS011;7865;50.918;4.510;2024-01-30T07:15:13;9.73;;;5.90;;
15526;SDS011;7865;50.918;4.510;2024-01-30T07:20:18;7.07;;;5.70;;
15526;SDS011;7865;50.918;4.510;2024-01-30T07:25:22;12.03;;;6.40;;
15526;SDS011;7865;50.918;4.510;2024-01-30T07:30:28;8.80;;;5.73;;
15526;SDS011;7865;50.918;4.510;2024-01-30T07:35:30;7.70;;;5.77;;
15526;SDS011;7865;50.918;4.510;2024-01-30T07:40:32;11.30;;;6.63;;
15526;SDS011;7865;50.918;4.510;2024-01-30T07:45:35;12.40;;;5.97;;
15526;SDS011;7865;50.918;4.510;2024-01-30T07:50:36;14.30;;;7.67;;
15526;SDS011;7865;50.918;4.510;2024-01-30T07:55:38;7.73;;;5.40;;
15526;SDS011;7865;50.918;4.510;2024-01-30T08:00:40;8.60;;;5.70;;
15526;SDS011;7865;50.918;4.510;2024-01-30T08:05:43;9.53;;;5.80;;
15526;SDS011;7865;50.918;4.510;2024-01-30T08:10:44;10.43;;;6.03;;
15526;SDS011;7865;50.918;4.510;2024-01-30T08:15:46;9.07;;;6.37;;
15526;SDS011;7865;50.918;4.510;2024-01-30T08:20:48;14.43;;;7.07;;
15526;SDS011;7865;50.918;4.510;2024-01-30T08:25:50;15.10;;;6.80;;
15526;SDS011;7865;50.918;4.510;2024-01-30T08:30:52;14.05;;;6.13;;
15526;SDS011;7865;50.918;4.510;2024-01-30T08:35:54;10.90;;;5.77;;
15526;SDS011;7865;50.918;4.510;2024-01-30T08:40:56;14.47;;;6.37;;
15526;SDS011;7865;50.918;4.510;2024-01-30T08:46:01;14.07;;;6.90;;
15526;SDS011;7865;50.918;4.510;2024-01-30T08:51:03;11.57;;;6.70;;
15526;SDS011;7865;50.918;4.510;2024-01-30T08:56:05;9.27;;;5.75;;
15526;SDS011;7865;50.918;4.510;2024-01-30T09:01:08;13.67;;;8.13;;
15526;SDS011;7865;50.918;4.510;2024-01-30T09:06:10;12.90;;;7.00;;
15526;SDS011;7865;50.918;4.510;2024-01-30T09:11:13;12.52;;;7.82;;
15526;SDS011;7865;50.918;4.510;2024-01-30T09:16:16;10.50;;;5.93;;
15526;SDS011;7865;50.918;4.510;2024-01-30T09:21:18;12.83;;;7.33;;
15526;SDS011;7865;50.918;4.510;2024-01-30T09:26:20;12.60;;;7.10;;
15526;SDS011;7865;50.918;4.510;2024-01-30T09:31:26;12.60;;;6.87;;
15526;SDS011;7865;50.918;4.510;2024-01-30T09:36:28;13.60;;;7.23;;
15526;SDS011;7865;50.918;4.510;2024-01-30T09:41:31;14.20;;;7.60;;
15526;SDS011;7865;50.918;4.510;2024-01-30T09:46:34;13.20;;;7.90;;
15526;SDS011;7865;50.918;4.510;2024-01-30T09:51:36;14.77;;;7.10;;
15526;SDS011;7865;50.918;4.510;2024-01-30T09:56:39;14.07;;;8.63;;
15526;SDS011;7865;50.918;4.510;2024-01-30T10:01:41;16.65;;;8.73;;
15526;SDS011;7865;50.918;4.510;2024-01-30T10:06:44;15.20;;;9.60;;
15526;SDS011;7865;50.918;4.510;2024-01-30T10:11:46;16.60;;;9.07;;
15526;SDS011;7865;50.918;4.510;2024-01-30T10:16:50;13.52;;;9.23;;
15526;SDS011;7865;50.918;4.510;2024-01-30T10:21:52;16.63;;;9.35;;
15526;SDS011;7865;50.918;4.510;2024-01-30T10:26:54;15.25;;;9.20;;
15526;SDS011;7865;50.918;4.510;2024-01-30T10:32:00;16.85;;;10.60;;
15526;SDS011;7865;50.918;4.510;2024-01-30T10:37:09;20.75;;;10.40;;
15526;SDS011;7865;50.918;4.510;2024-01-30T10:42:17;15.68;;;10.52;;
15526;SDS011;7865;50.918;4.510;2024-01-30T10:47:21;13.90;;;10.13;;
15526;SDS011;7865;50.918;4.510;2024-01-30T10:52:29;16.10;;;9.93;;
15526;SDS011;7865;50.918;4.510;2024-01-30T10:57:31;14.17;;;7.57;;
15526;SDS011;7865;50.918;4.510;2024-01-30T11:02:39;12.63;;;7.03;;
15526;SDS011;7865;50.918;4.510;2024-01-30T11:07:42;16.33;;;7.38;;
15526;SDS011;7865;50.918;4.510;2024-01-30T11:12:45;11.18;;;6.57;;
15526;SDS011;7865;50.918;4.510;2024-01-30T11:22:51;10.90;;;5.53;;
15526;SDS011;7865;50.918;4.510;2024-01-30T11:27:54;10.70;;;4.60;;
15526;SDS011;7865;50.918;4.510;2024-01-30T11:33:01;8.73;;;4.33;;
15526;SDS011;7865;50.918;4.510;2024-01-30T11:38:06;2.83;;;1.53;;
15526;SDS011;7865;50.918;4.510;2024-01-30T11:43:10;4.07;;;1.80;;
15526;SDS011;7865;50.918;4.510;2024-01-30T11:48:13;6.00;;;1.60;;
15526;SDS011;7865;50.918;4.510;2024-01-30T11:53:15;3.67;;;1.10;;
15526;SDS011;7865;50.918;4.510;2024-01-30T11:58:17;3.30;;;0.90;;
15526;SDS011;7865;50.918;4.510;2024-01-30T12:03:19;9.07;;;1.10;;
15526;SDS011;7865;50.918;4.510;2024-01-30T12:08:21;1.65;;;0.75;;
15526;SDS011;7865;50.918;4.510;2024-01-30T12:13:23;4.60;;;1.20;;
15526;SDS011;7865;50.918;4.510;2024-01-30T12:18:25;2.00;;;1.00;;
15526;SDS011;7865;50.918;4.510;2024-01-30T12:23:27;1.35;;;0.80;;
15526;SDS011;7865;50.918;4.510;2024-01-30T12:28:30;2.90;;;0.98;;
15526;SDS011;7865;50.918;4.510;2024-01-30T12:33:32;4.07;;;0.90;;
15526;SDS011;7865;50.918;4.510;2024-01-30T12:38:34;5.40;;;0.90;;
15526;SDS011;7865;50.918;4.510;2024-01-30T12:43:36;3.15;;;0.90;;
15526;SDS011;7865;50.918;4.510;2024-01-30T12:48:39;2.13;;;0.60;;
15526;SDS011;7865;50.918;4.510;2024-01-30T12:53:42;3.20;;;0.60;;
15526;SDS011;7865;50.918;4.510;2024-01-30T12:58:43;5.40;;;1.05;;
15526;SDS011;7865;50.918;4.510;2024-01-30T13:03:49;4.13;;;1.10;;
15526;SDS011;7865;50.918;4.510;2024-01-30T13:08:52;5.50;;;0.90;;
15526;SDS011;7865;50.918;4.510;2024-01-30T13:13:53;3.92;;;0.95;;
15526;SDS011;7865;50.918;4.510;2024-01-30T13:18:55;6.53;;;1.05;;
15526;SDS011;7865;50.918;4.510;2024-01-30T13:23:57;6.28;;;1.30;;
15526;SDS011;7865;50.918;4.510;2024-01-30T13:29:01;5.87;;;1.20;;
15526;SDS011;7865;50.918;4.510;2024-01-30T13:34:03;3.17;;;0.90;;
15526;SDS011;7865;50.918;4.510;2024-01-30T13:39:09;4.03;;;1.00;;
15526;SDS011;7865;50.918;4.510;2024-01-30T13:44:12;3.77;;;1.00;;
15526;SDS011;7865;50.918;4.510;2024-01-30T13:49:14;5.03;;;1.53;;
15526;SDS011;7865;50.918;4.510;2024-01-30T13:54:16;6.37;;;1.33;;
15526;SDS011;7865;50.918;4.510;2024-01-30T13:59:18;2.90;;;0.83;;
15526;SDS011;7865;50.918;4.510;2024-01-30T14:04:25;4.13;;;1.00;;
15526;SDS011;7865;50.918;4.510;2024-01-30T14:09:27;5.80;;;1.30;;
15526;SDS011;7865;50.918;4.510;2024-01-30T14:14:30;3.57;;;1.30;;
15526;SDS011;7865;50.918;4.510;2024-01-30T14:19:35;6.70;;;1.23;;
15526;SDS011;7865;50.918;4.510;2024-01-30T14:24:37;4.13;;;1.10;;
15526;SDS011;7865;50.918;4.510;2024-01-30T14:29:39;4.60;;;1.30;;
15526;SDS011;7865;50.918;4.510;2024-01-30T14:34:43;5.47;;;1.93;;
15526;SDS011;7865;50.918;4.510;2024-01-30T14:39:46;5.93;;;1.67;;
15526;SDS011;7865;50.918;4.510;2024-01-30T14:44:49;2.23;;;1.07;;
15526;SDS011;7865;50.918;4.510;2024-01-30T14:49:51;6.67;;;1.33;;
15526;SDS011;7865;50.918;4.510;2024-01-30T14:54:54;4.07;;;0.87;;
15526;SDS011;7865;50.918;4.510;2024-01-30T14:59:56;5.23;;;1.40;;
15526;SDS011;7865;50.918;4.510;2024-01-30T15:04:57;4.97;;;1.33;;
15526;SDS011;7865;50.918;4.510;2024-01-30T15:10:00;2.57;;;1.20;;
15526;SDS011;7865;50.918;4.510;2024-01-30T15:15:02;3.40;;;1.30;;
15526;SDS011;7865;50.918;4.510;2024-01-30T15:20:05;3.87;;;2.33;;
15526;SDS011;7865;50.918;4.510;2024-01-30T15:25:08;2.80;;;1.33;;
15526;SDS011;7865;50.918;4.510;2024-01-30T15:30:11;6.67;;;1.40;;
15526;SDS011;7865;50.918;4.510;2024-01-30T15:35:13;3.50;;;1.57;;
15526;SDS011;7865;50.918;4.510;2024-01-30T15:40:15;5.30;;;1.23;;
15526;SDS011;7865;50.918;4.510;2024-01-30T15:45:17;4.57;;;1.10;;
15526;SDS011;7865;50.918;4.510;2024-01-30T15:50:20;3.50;;;1.53;;
15526;SDS011;7865;50.918;4.510;2024-01-30T15:55:23;3.97;;;1.03;;
15526;SDS011;7865;50.918;4.510;2024-01-30T16:00:25;2.60;;;1.03;;
15526;SDS011;7865;50.918;4.510;2024-01-30T16:05:27;3.03;;;1.20;;
15526;SDS011;7865;50.918;4.510;2024-01-30T16:10:29;5.23;;;1.50;;
15526;SDS011;7865;50.918;4.510;2024-01-30T16:15:31;5.40;;;1.73;;
15526;SDS011;7865;50.918;4.510;2024-01-30T16:20:51;2.63;;;1.40;;
15526;SDS011;7865;50.918;4.510;2024-01-30T16:26:13;4.40;;;1.50;;
15526;SDS011;7865;50.918;4.510;2024-01-30T16:31:34;4.77;;;2.13;;
15526;SDS011;7865;50.918;4.510;2024-01-30T16:36:55;3.73;;;2.00;;
15526;SDS011;7865;50.918;4.510;2024-01-30T16:42:17;5.60;;;2.03;;
15526;SDS011;7865;50.918;4.510;2024-01-30T16:47:38;5.63;;;2.13;;
15526;SDS011;7865;50.918;4.510;2024-01-30T16:53:00;5.87;;;2.97;;
15526;SDS011;7865;50.918;4.510;2024-01-30T16:58:21;7.67;;;3.10;;
15526;SDS011;7865;50.918;4.510;2024-01-30T17:03:43;6.87;;;3.63;;
15526;SDS011;7865;50.918;4.510;2024-01-30T17:09:04;8.40;;;4.63;;
15526;SDS011;7865;50.918;4.510;2024-01-30T17:14:28;9.03;;;3.90;;
15526;SDS011;7865;50.918;4.510;2024-01-30T17:19:52;8.97;;;5.00;;
15526;SDS011;7865;50.918;4.510;2024-01-30T17:25:13;7.50;;;4.10;;
15526;SDS011;7865;50.918;4.510;2024-01-30T17:30:37;10.17;;;4.00;;
15526;SDS011;7865;50.918;4.510;2024-01-30T17:35:59;7.33;;;4.60;;
15526;SDS011;7865;50.918;4.510;2024-01-30T17:41:19;3.90;;;3.33;;
15526;SDS011;7865;50.918;4.510;2024-01-30T17:46:42;10.07;;;4.17;;
15526;SDS011;7865;50.918;4.510;2024-01-30T17:52:03;9.97;;;4.27;;
15526;SDS011;7865;50.918;4.510;2024-01-30T17:57:24;6.60;;;4.60;;
15526;SDS011;7865;50.918;4.510;2024-01-30T18:02:45;12.67;;;4.60;;
15526;SDS011;7865;50.918;4.510;2024-01-30T18:08:06;9.20;;;4.50;;
15526;SDS011;7865;50.918;4.510;2024-01-30T18:13:09;11.40;;;4.50;;
15526;SDS011;7865;50.918;4.510;2024-01-30T18:18:14;8.03;;;4.50;;
15526;SDS011;7865;50.918;4.510;2024-01-30T18:23:17;6.80;;;3.70;;
15526;SDS011;7865;50.918;4.510;2024-01-30T18:28:20;9.60;;;4.40;;
15526;SDS011;7865;50.918;4.510;2024-01-30T18:33:21;7.60;;;4.13;;
15526;SDS011;7865;50.918;4.510;2024-01-30T18:38:23;7.50;;;4.27;;
15526;SDS011;7865;50.918;4.510;2024-01-30T18:43:25;6.93;;;4.37;;
15526;SDS011;7865;50.918;4.510;2024-01-30T18:48:27;8.03;;;4.33;;
15526;SDS011;7865;50.918;4.510;2024-01-30T18:53:29;12.00;;;4.57;;
15526;SDS011;7865;50.918;4.510;2024-01-30T18:58:31;9.27;;;4.60;;
15526;SDS011;7865;50.918;4.510;2024-01-30T19:03:33;7.40;;;4.73;;
15526;SDS011;7865;50.918;4.510;2024-01-30T19:08:36;11.43;;;4.93;;
15526;SDS011;7865;50.918;4.510;2024-01-30T19:13:37;9.27;;;4.33;;
15526;SDS011;7865;50.918;4.510;2024-01-30T19:18:39;9.47;;;4.37;;
15526;SDS011;7865;50.918;4.510;2024-01-30T19:23:41;7.53;;;4.73;;
15526;SDS011;7865;50.918;4.510;2024-01-30T19:28:43;5.93;;;4.53;;
15526;SDS011;7865;50.918;4.510;2024-01-30T19:33:48;9.47;;;4.80;;
15526;SDS011;7865;50.918;4.510;2024-01-30T19:38:50;10.23;;;5.40;;
15526;SDS011;7865;50.918;4.510;2024-01-30T19:43:52;9.73;;;5.13;;
15526;SDS011;7865;50.918;4.510;2024-01-30T19:48:54;8.00;;;5.00;;
15526;SDS011;7865;50.918;4.510;2024-01-30T19:53:56;10.07;;;5.17;;
15526;SDS011;7865;50.918;4.510;2024-01-30T19:58:58;11.13;;;6.07;;
15526;SDS011;7865;50.918;4.510;2024-01-30T20:04:00;16.33;;;6.10;;
15526;SDS011;7865;50.918;4.510;2024-01-30T20:09:03;8.70;;;6.57;;
15526;SDS011;7865;50.918;4.510;2024-01-30T20:14:05;8.77;;;6.53;;
15526;SDS011;7865;50.918;4.510;2024-01-30T20:19:07;9.40;;;6.20;;
15526;SDS011;7865;50.918;4.510;2024-01-30T20:24:10;6.87;;;5.90;;
15526;SDS011;7865;50.918;4.510;2024-01-30T20:29:12;15.03;;;7.07;;
15526;SDS011;7865;50.918;4.510;2024-01-30T20:34:14;10.90;;;6.47;;
15526;SDS011;7865;50.918;4.510;2024-01-30T20:39:16;9.80;;;6.23;;
15526;SDS011;7865;50.918;4.510;2024-01-30T20:44:18;10.13;;;6.93;;
15526;SDS011;7865;50.918;4.510;2024-01-30T20:49:21;11.20;;;7.47;;
15526;SDS011;7865;50.918;4.510;2024-01-30T20:54:23;13.30;;;6.90;;
15526;SDS011;7865;50.918;4.510;2024-01-30T20:59:26;10.23;;;7.33;;
15526;SDS011;7865;50.918;4.510;2024-01-30T21:04:28;10.57;;;6.90;;
15526;SDS011;7865;50.918;4.510;2024-01-30T21:09:30;10.17;;;7.20;;
15526;SDS011;7865;50.918;4.510;2024-01-30T21:14:32;12.17;;;7.07;;
15526;SDS011;7865;50.918;4.510;2024-01-30T21:19:34;9.17;;;7.10;;
15526;SDS011;7865;50.918;4.510;2024-01-30T21:24:36;8.87;;;6.43;;
15526;SDS011;7865;50.918;4.510;2024-01-30T21:29:38;11.53;;;7.53;;
15526;SDS011;7865;50.918;4.510;2024-01-30T21:34:42;13.73;;;8.13;;
15526;SDS011;7865;50.918;4.510;2024-01-30T21:39:44;13.07;;;8.33;;
15526;SDS011;7865;50.918;4.510;2024-01-30T21:44:46;11.27;;;8.37;;
15526;SDS011;7865;50.918;4.510;2024-01-30T21:49:49;11.27;;;8.37;;
15526;SDS011;7865;50.918;4.510;2024-01-30T21:54:51;10.70;;;8.63;;
15526;SDS011;7865;50.918;4.510;2024-01-30T21:59:53;15.97;;;9.63;;
15526;SDS011;7865;50.918;4.510;2024-01-30T22:04:55;11.97;;;9.07;;
15526;SDS011;7865;50.918;4.510;2024-01-30T22:09:57;11.73;;;8.40;;
15526;SDS011;7865;50.918;4.510;2024-01-30T22:14:59;12.70;;;9.07;;
15526;SDS011;7865;50.918;4.510;2024-01-30T22:20:01;15.43;;;10.17;;
15526;SDS011;7865;50.918;4.510;2024-01-30T22:25:05;11.63;;;9.77;;
15526;SDS011;7865;50.918;4.510;2024-01-30T22:30:08;14.50;;;11.03;;
15526;SDS011;7865;50.918;4.510;2024-01-30T22:35:10;13.30;;;11.10;;
15526;SDS011;7865;50.918;4.510;2024-01-30T22:40:15;14.30;;;11.17;;
15526;SDS011;7865;50.918;4.510;2024-01-30T22:45:17;14.20;;;10.70;;
15526;SDS011;7865;50.918;4.510;2024-01-30T22:50:19;13.70;;;10.70;;
15526;SDS011;7865;50.918;4.510;2024-01-30T22:55:21;12.93;;;10.43;;
15526;SDS011;7865;50.918;4.510;2024-01-30T23:00:23;16.00;;;11.03;;
15526;SDS011;7865;50.918;4.510;2024-01-30T23:05:30;14.67;;;10.97;;
15526;SDS011;7865;50.918;4.510;2024-01-30T23:10:32;21.83;;;12.47;;
15526;SDS011;7865;50.918;4.510;2024-01-30T23:15:34;15.50;;;11.90;;
15526;SDS011;7865;50.918;4.510;2024-01-30T23:20:36;15.73;;;11.40;;
15526;SDS011;7865;50.918;4.510;2024-01-30T23:25:39;18.90;;;12.00;;
15526;SDS011;7865;50.918;4.510;2024-01-30T23:30:42;19.37;;;13.43;;
15526;SDS011;7865;50.918;4.510;2024-01-30T23:35:44;17.10;;;12.83;;
15526;SDS011;7865;50.918;4.510;2024-01-30T23:40:45;17.53;;;12.60;;
15526;SDS011;7865;50.918;4.510;2024-01-30T23:45:50;21.20;;;12.90;;
15526;SDS011;7865;50.918;4.510;2024-01-30T23:50:52;18.93;;;13.77;;
15526;SDS011;7865;50.918;4.510;2024-01-30T23:55:54;22.40;;;13.33;;
